AirNav   Air Wisconsin Up To $57,000 Bonus
 
 1101 users online  

7NJ1 New Freedom Switching Station Heliport
Winslow Township, New Jersey, USA

GOING TO WINSLOW TOWNSHIP?


FAA INFORMATION EFFECTIVE 12 SEPTEMBER 2019

Location

FAA Identifier: 7NJ1
Lat/Long: 39-44-20.4150N 074-58-00.5950W
39-44.340250N 074-58.009917W
39.7390042,-74.9668319
(estimated)
Elevation: 130 ft. / 40 m (estimated)
Variation: 11W (1985)
From city: 3 miles SW of WINSLOW TOWNSHIP, NJ
Time zone: UTC -4 (UTC -5 during Standard Time)
Zip code: 08081

Heliport Operations

Heliport use: Private use. Permission required prior to landing
Activation date: 05/1974
Control tower: no
ARTCC: NEW YORK CENTER
FSS: MILLVILLE FLIGHT SERVICE STATION
Attendance: 
Segmented circle: no

Heliport Communications

WX AWOS-AV at N81 (11 nm SE): 122.7
WX ASOS at VAY (13 nm NE): 119.325 (609-267-1176)
WX ASOS at PHL (15 nm NW): PHONE 215-492-9617

Nearby radio navigation aids

VOR radial/distance  VOR name  Freq  Var
VCNr010/12.1CEDAR LAKE VOR/DME115.2010W
OODr078/16.7WOODSTOWN VORTAC112.8010W
GXUr238/23.5MC GUIRE VORTAC110.6012W
ACYr323/24.8ATLANTIC CITY VORTAC108.6010W
CYNr269/25.1COYLE VORTAC113.4010W
DQOr093/29.8DUPONT VORTAC114.0010W
ARDr195/31.0YARDLEY VOR/DME108.2010W
MXEr117/34.2MODENA VORTAC113.2009W
RBVr228/35.3ROBBINSVILLE VORTAC113.8010W
SIEr358/39.4SEA ISLE VORTAC114.8009W
ENOr049/39.7SMYRNA VORTAC111.4009W
PTWr146/39.8POTTSTOWN VORTAC116.5009W

 
NDB name  Hdg/Dist  Freq  Var  ID
RAINBOW033/20.836311WRNB .-. -. -...
AMBLER160/27.527512WING .. -. --.
LAKEHURST249/34.439611WNEL -. . .-..

Heliport Services

Runway Information

Helipad H1

Dimensions: 75 x 75 ft. / 23 x 23 m
Surface: gravel, in fair condition
Latitude: 39-44.340250N
Longitude: 074-58.009917W
Elevation: 130.0 ft.
Traffic pattern: leftleft
Markings: none, in fair condition

Heliport Ownership and Management from official FAA records

Ownership: Privately-owned
Owner: PUB.SERVICE ELEC. GAS CO.
80 PARK PLAZA, T-19G
NEWARK, NJ 07101
Manager: J. T. JAMES
80 PARK PLAZA, T-19G
NEWARK, NJ 07101
Phone 201-430-6059

Additional Remarks

FOR CD CTC PHILADELPHIA APCH AT 800-354-9884.

Instrument Procedures

There are no published instrument procedures at 7NJ1.

Some nearby airports with instrument procedures:

19N - Camden County Airport (3 nm N)
17N - Cross Keys Airport (4 nm SW)
N81 - Hammonton Municipal Airport (11 nm SE)
29N - Kroelinger Airport (13 nm S)
KVAY - South Jersey Regional Airport (13 nm NE)
N14 - Flying W Airport (14 nm NE)
KPHL - Philadelphia International Airport (15 nm NW)
7N7 - Spitfire Aerodrome (20 nm W)
 
Loc | Ops | Rwys | IFR | FBO | Links
Com | Nav | Svcs | Stats | Notes
Area around 7NJ1 (New Freedom Switching Station Heliport)
 
Road maps at: MapQuest Bing Google
 
Aerial photo
No photo
 
Sectional chart

 
Airport distance calculator
Flying to New Freedom Switching Station Heliport? Find the distance to fly.

From to 7NJ1

Sunrise and sunset
Times for 16-Sep-2019
 Local
(UTC-4)
 Zulu
(UTC)
Morning civil twilight06:1610:16
Sunrise06:4310:43
Sunset19:0723:07
Evening civil twilight19:3423:34

Current date and time
Zulu (UTC)  16-Sep-2019 23:24:56
Local (UTC-4)  16-Sep-2019 19:24:56
 
METAR
KVAY 
13nm NE 
ASOS 119.325 609-267-1176
162254Z AUTO 11004KT 10SM OVC070 24/19 A2999 RMK AO2 SLP155 T02390189 $
KPHL 
14nm NW 
162254Z 02007KT 10SM FEW040 BKN065 OVC120 27/14 A2998 RMK AO2 SLP153 T02720144 $
KPNE 
21nm N 
162254Z 05008KT 10SM OVC060 26/17 A3001 RMK AO2 SLP160 T02610167
KMIV 
23nm S 
162254Z AUTO 00000KT 10SM OVC120 24/16 A2998 RMK AO2 SLP152 T02440161
KACY 
24nm SE 
162254Z 12004KT 10SM CLR 24/17 A3000 RMK AO2 SLP156 T02390167
KWRI 
24nm NE 
162256Z AUTO 08006KT 10SM FEW100 23/17 A3000 RMK AO2 SLP158 T02270169 $
TAF
KPHL 
14nm NW 
162213Z 1622/1724 VRB04KT P6SM FEW040 BKN060 FM170000 06007KT P6SM OVC050 FM170900 04009KT P6SM FEW100
NOTAMs
Click for the latest NOTAMs
NOTAMs are issued by the DoD/FAA and will open in a separate window not controlled by AirNav.

 

 
 

Would you like to see your business listed on this page?

 If your business provides an interesting product or service to pilots, flight crews, aircraft, or users of the New Freedom Switching Station Heliport, you should consider listing it here.  To start the listing process, click on the button below
 
Add a business
 

Other Pages about New Freedom Switching Station Heliport

Update a link
 
Copyright © AirNav, LLC. All rights reserved. Privacy Policy  Contact